Latest Weather Observations for Adelaide

IDS60801

Issued at 8:35 am CDT Monday 24 November 2014 (issued every 30 minutes, with the page automatically refreshed every 10 minutes)

About weather observations | Map of weather stations | Latest weather observations for SA | Other Formats
Station Details ID: 023090 Name: KENT TOWN Lat: -34.92 Lon: 138.62 Height: 48.0 m
Data from the previous 72 hours. | See also: Recent months at Adelaide
Date/Time
CDT
Temp
°C
App
Temp
°C
Dew
Point
Rel
Hum
%
Delta-T
°C
Wind Press
QNH
hPa
Press
MSL
hPa
Rain
since 9 am
mm
Dir
 
Spd
km/h
Gust
km/h
Spd
kts
Gust
kts
24/08:30am 19.8 17.2 9.5 51 5.5 S 13 20 7 11 1011.6 - 0.0
24/08:00am 19.0 16.6 10.0 56 4.8 S 13 24 7 13 1011.0 - 0.0
24/07:30am 18.2 14.9 10.8 62 4.0 SSW 19 32 10 17 1010.3 - 0.0
24/07:00am 19.4 16.2 11.2 59 4.5 SSE 19 26 10 14 1009.2 - 0.0
24/06:30am 20.1 19.1 12.3 61 4.4 WSW 9 13 5 7 1008.4 - 0.0
24/06:00am 20.0 21.3 14.0 68 3.5 ESE 0 0 0 0 1007.8 1007.8 0.0
24/05:30am 20.2 21.6 14.4 69 3.4 CALM 0 0 0 0 1006.9 - 0.0
24/05:00am 20.4 21.2 13.8 66 3.8 SW 2 6 1 3 1006.5 - 0.0
24/04:30am 21.3 21.2 13.3 60 4.6 SSW 6 9 3 5 1006.2 - 0.0
24/04:00am 22.3 21.6 13.1 56 5.3 NW 9 20 5 11 1006.1 - 0.0
24/03:30am 23.7 23.5 13.0 51 6.2 NE 6 9 3 5 1005.8 - 0.0
24/03:00am 24.5 23.0 11.9 45 7.2 NE 11 20 6 11 1005.9 1005.9 0.0
24/02:30am 24.2 22.4 12.1 46 6.9 NNE 13 24 7 13 1006.5 - 0.0
24/02:00am 24.5 21.3 11.4 43 7.4 NE 19 30 10 16 1006.5 - 0.0
24/01:30am 23.7 22.1 11.7 47 6.8 NE 11 20 6 11 1007.1 - 0.0
24/01:00am 24.1 20.7 10.6 42 7.5 ENE 19 28 10 15 1007.5 - 0.0
24/12:30am 23.3 20.3 10.5 44 7.1 NE 17 28 9 15 1007.6 - 0.0
24/12:00am 23.0 20.7 10.5 45 6.9 NE 13 20 7 11 1007.8 1007.8 0.0
 
Date/Time
CDT
Temp
°C
App
Temp
°C
Dew
Point
Rel
Hum
%
Delta-T
°C
Wind Press
QNH
hPa
Press
MSL
hPa
Rain
since 9 am
mm
Dir
 
Spd
km/h
Gust
km/h
Spd
kts
Gust
kts
23/11:30pm 23.9 21.2 10.4 42 7.5 E 15 30 8 16 1007.8 - 0.0
23/11:00pm 23.4 22.1 11.3 46 6.8 WNW 9 17 5 9 1008.1 - 0.0
23/10:30pm 23.6 22.6 12.2 48 6.5 S 9 13 5 7 1008.6 - 0.0
23/10:00pm 25.0 21.8 11.2 42 7.8 NNE 19 30 10 16 1008.4 - 0.0
23/09:30pm 24.6 23.6 12.2 46 7.1 ESE 9 15 5 8 1008.7 - 0.0
23/09:00pm 25.5 23.9 11.7 42 7.9 ESE 11 20 6 11 1008.5 1008.5 0.0
23/08:30pm 25.7 24.0 12.4 43 7.7 SE 13 20 7 11 1008.2 - 0.0
23/08:00pm 25.8 26.5 13.4 46 7.3 NE 2 7 1 4 1008.2 - 0.0
23/07:30pm 26.9 26.4 12.5 40 8.4 E 7 15 4 8 1007.8 - 0.0
23/07:00pm 27.6 28.0 11.4 36 9.3 CALM 0 11 0 6 1008.1 - 0.0
23/06:30pm 28.0 26.9 10.5 33 9.9 SSE 7 13 4 7 1008.2 - 0.0
23/06:00pm 26.9 25.8 10.6 36 9.2 SE 7 11 4 6 1009.0 1009.0 0.0
23/05:30pm 27.0 25.7 10.0 34 9.5 SSW 7 9 4 5 1009.7 - 0.0
23/05:00pm 26.2 24.7 9.3 34 9.3 SSW 7 13 4 7 1009.7 - 0.0
23/04:30pm 25.9 23.6 7.5 31 9.8 SSW 9 11 5 6 1010.5 - 0.0
23/04:00pm 25.2 23.1 8.3 34 9.1 SSW 9 15 5 8 1010.9 - 0.0
23/03:30pm 25.2 22.6 7.7 32 9.3 SSW 11 17 6 9 1011.8 - 0.0
23/03:00pm 26.0 22.7 8.2 32 9.6 WNW 15 20 8 11 1012.5 1012.5 0.0
23/02:30pm 27.5 23.9 9.7 32 9.9 WNW 19 30 10 16 1012.2 - 0.0
23/02:00pm 26.7 24.3 10.0 35 9.3 W 13 19 7 10 1011.6 - 0.0
23/01:30pm 25.5 23.3 10.7 39 8.3 SW 13 20 7 11 1011.7 - 0.0
23/01:00pm 25.0 23.6 12.3 45 7.3 SW 11 20 6 11 1012.4 - 0.0
23/12:30pm 24.9 23.0 13.0 47 6.9 WSW 15 20 8 11 1012.5 - 0.0
23/12:00pm 24.7 23.0 13.6 50 6.5 W 15 20 8 11 1012.9 1012.8 0.0
23/11:30am 24.9 24.4 13.9 50 6.5 W 9 15 5 8 1012.5 - 0.0
23/11:00am 23.9 23.1 11.7 46 6.9 WSW 7 13 4 7 1012.2 - 0.0
23/10:30am 23.6 23.0 12.2 48 6.5 W 7 11 4 6 1012.2 - 0.0
23/10:00am 22.3 20.8 10.7 47 6.4 NW 9 17 5 9 1012.2 - 0.0
23/09:30am 21.3 21.1 12.9 58 4.8 SW 6 11 3 6 1011.8 - 0.0
23/09:00am 19.6 19.3 11.6 60 4.4 N 4 11 2 6 1012.2 1012.2 7.0
23/08:30am 18.5 18.1 12.4 67 3.4 NNE 6 11 3 6 1012.4 - 7.0
23/08:00am 17.8 17.8 12.4 70 3.0 NE 4 7 2 4 1012.7 - 7.0
23/07:30am 16.4 15.6 11.2 71 2.8 ENE 6 7 3 4 1012.8 - 7.0
23/07:00am 13.7 14.0 10.9 83 1.5 CALM 0 0 0 0 1012.9 - 7.0
23/06:30am 12.8 12.2 10.5 86 1.2 ESE 4 7 2 4 1012.8 - 7.0
23/06:00am 12.7 11.8 10.8 88 1.0 ENE 6 7 3 4 1012.9 1012.8 7.0
23/05:30am 12.8 12.4 11.1 89 0.9 NE 4 9 2 5 1012.4 - 7.0
23/05:00am 13.0 12.6 11.1 88 1.0 NE 4 9 2 5 1012.4 - 7.0
23/04:30am 13.1 13.5 11.2 88 1.0 CALM 0 0 0 0 1012.1 - 7.0
23/04:00am 13.5 12.9 11.6 88 1.0 ENE 6 7 3 4 1012.0 - 7.0
23/03:30am 13.8 13.3 11.9 88 1.0 SE 6 7 3 4 1011.9 - 7.0
23/03:00am 13.8 14.4 11.9 88 1.0 CALM 0 0 0 0 1011.9 1011.9 7.0
23/02:30am 14.2 14.4 12.0 87 1.2 N 2 7 1 4 1011.9 - 7.0
23/02:00am 14.4 15.0 11.8 84 1.4 CALM 0 0 0 0 1011.9 - 7.0
23/01:30am 14.5 15.2 12.3 87 1.2 CALM 0 0 0 0 1012.0 - 7.0
23/01:00am 15.1 15.8 12.2 83 1.6 CALM 0 0 0 0 1012.3 - 7.0
23/12:30am 15.5 16.2 12.2 81 1.8 CALM 0 0 0 0 1012.5 - 7.0
23/12:00am 16.2 15.4 11.8 75 2.4 SE 7 11 4 6 1012.4 1012.4 7.0
 
Date/Time
CDT
Temp
°C
App
Temp
°C
Dew
Point
Rel
Hum
%
Delta-T
°C
Wind Press
QNH
hPa
Press
MSL
hPa
Rain
since 9 am
mm
Dir
 
Spd
km/h
Gust
km/h
Spd
kts
Gust
kts
22/11:30pm 16.5 16.7 13.1 80 1.9 SE 4 7 2 4 1012.7 - 7.0
22/11:00pm 17.0 16.1 13.6 80 1.9 S 11 17 6 9 1012.3 - 7.0
22/10:30pm 16.8 17.1 15.1 90 1.0 S 7 9 4 5 1012.2 - 7.0
22/10:00pm 17.3 19.1 15.6 90 1.0 CALM 0 0 0 0 1011.8 - 6.8
22/09:30pm 17.6 18.7 15.6 88 1.2 SSW 4 6 2 3 1011.4 - 6.8
22/09:00pm 18.3 20.1 15.6 84 1.6 CALM 0 0 0 0 1010.8 1010.8 6.8
22/08:30pm 18.8 20.0 15.0 78 2.2 SSW 2 6 1 3 1010.4 - 6.8
22/08:00pm 19.4 18.9 15.0 75 2.6 WSW 11 17 6 9 1009.9 - 6.8
22/07:30pm 20.9 20.0 13.6 63 4.2 SW 11 17 6 9 1009.4 - 6.8
22/07:00pm 21.3 19.6 13.5 61 4.5 SW 15 26 8 14 1009.0 - 6.8
22/06:30pm 22.7 22.2 13.8 57 5.2 SSW 9 17 5 9 1008.7 - 6.8
22/06:00pm 22.6 20.2 13.9 58 5.1 WSW 19 32 10 17 1008.3 1008.3 6.8
22/05:30pm 21.9 22.0 16.5 71 3.3 SW 11 20 6 11 1008.1 - 6.8
22/05:00pm 22.2 21.9 17.3 74 3.0 SW 15 28 8 15 1007.8 - 6.8
22/04:30pm 22.9 23.9 19.5 81 2.2 SW 13 17 7 9 1007.5 - 6.8
22/04:00pm 22.9 24.4 20.6 87 1.5 SW 13 19 7 10 1007.1 - 6.8
22/03:30pm 22.8 26.6 20.2 85 1.7 CALM 0 7 0 4 1007.1 - 6.8
22/03:00pm 22.3 23.6 19.3 83 1.9 SW 11 20 6 11 1006.9 1006.9 6.8
22/02:30pm 23.4 23.9 17.5 69 3.7 NNE 11 20 6 11 1007.0 - 5.6
22/02:00pm 21.3 23.2 18.9 86 1.5 E 7 11 4 6 1007.1 - 5.6
22/01:30pm 23.2 27.1 20.4 84 1.8 CALM 0 11 0 6 1008.4 - 2.8
22/01:00pm 24.4 26.2 18.4 69 3.8 E 6 9 3 5 1007.2 - 2.8
22/12:30pm 23.5 24.7 17.4 68 3.8 E 7 13 4 7 1006.4 - 2.8
22/12:00pm 20.4 21.1 17.0 81 2.1 E 9 17 5 9 1007.3 1007.3 2.2
22/11:30am 19.4 20.1 17.1 86 1.4 NE 9 13 5 7 1007.9 - 2.2
22/11:08am 18.6 17.7 16.8 89 1.1 NE 17 24 9 13 1007.6 - 2.0
22/11:00am 18.7 19.0 17.1 90 1.0 N 11 17 6 9 1009.8 - 2.0
22/10:45am 18.9 18.6 17.3 90 1.0 W 15 20 8 11 1009.5 - 1.6
22/10:30am 18.8 17.4 16.6 87 1.3 E 19 26 10 14 1007.5 - 1.6
22/10:00am 19.2 20.3 17.2 88 1.2 N 7 13 4 7 1008.7 - 1.0
22/09:30am 19.1 19.0 17.0 88 1.3 E 13 24 7 13 1008.2 - 0.4
22/09:15am 19.1 18.9 17.5 90 1.0 ENE 15 24 8 13 1008.1 - 0.4
22/09:00am 19.3 21.9 17.5 89 1.1 CALM 0 0 0 0 1010.2 1010.2 1.6
22/08:30am 19.2 19.3 16.4 84 1.7 SSW 11 19 6 10 1008.9 - 1.4
22/08:21am 20.1 21.2 15.6 75 2.7 NE 4 11 2 6 1010.5 - 0.8
22/08:00am 20.1 19.4 14.3 69 3.4 E 11 13 6 7 1008.3 - 0.8
22/07:30am 19.8 19.3 13.9 69 3.4 ENE 9 15 5 8 1008.7 - 0.6
22/07:19am 21.2 20.2 12.4 57 5.0 NNE 9 15 5 8 1009.5 - 0.4
22/07:00am 22.8 20.5 9.0 41 7.4 NNE 11 20 6 11 1007.5 - 0.4
22/06:30am 23.4 20.4 7.6 36 8.3 NNE 13 24 7 13 1006.8 - 0.4
22/06:00am 23.4 19.1 7.1 35 8.5 NNE 19 30 10 16 1006.3 1006.3 0.4
22/05:30am 23.5 19.2 8.0 37 8.2 NNW 20 43 11 23 1007.6 - 0.2
22/05:00am 25.1 21.4 4.7 26 10.3 NNE 13 20 7 11 1005.9 - 0.2
22/04:30am 24.6 21.3 4.7 27 10.0 NNE 11 20 6 11 1005.6 - 0.2
22/04:00am 24.2 20.1 4.3 27 9.9 NE 15 24 8 13 1005.3 - 0.2
22/03:30am 24.0 19.8 4.0 27 9.9 NNE 15 26 8 14 1006.0 - 0.2
22/03:00am 23.8 19.6 3.6 27 9.9 NE 15 24 8 13 1005.9 1005.9 0.2
22/02:30am 23.2 18.7 4.1 29 9.4 ENE 17 26 9 14 1005.9 - 0.2
22/02:00am 23.4 19.3 4.2 28 9.5 NE 15 22 8 12 1006.6 - 0.2
22/01:30am 23.7 19.6 4.4 28 9.6 NE 15 24 8 13 1007.0 - 0.2
22/01:00am 23.5 19.8 4.7 29 9.4 NE 13 20 7 11 1007.2 - 0.2
22/12:30am 23.2 19.4 3.8 28 9.5 NE 13 20 7 11 1007.8 - 0.2
22/12:00am 21.4 18.8 6.2 37 7.7 NE 9 13 5 7 1008.5 1008.5 0.2
 
Date/Time
CDT
Temp
°C
App
Temp
°C
Dew
Point
Rel
Hum
%
Delta-T
°C
Wind Press
QNH
hPa
Press
MSL
hPa
Rain
since 9 am
mm
Dir
 
Spd
km/h
Gust
km/h
Spd
kts
Gust
kts
21/11:30pm 21.6 19.5 6.8 38 7.6 NE 7 9 4 5 1008.8 - 0.2
21/11:00pm 22.1 19.8 5.6 34 8.3 ENE 7 11 4 6 1009.2 - 0.2
21/10:30pm 22.2 18.8 3.9 30 8.9 ENE 11 13 6 7 1009.7 - 0.2
21/10:00pm 21.4 19.1 7.5 40 7.2 ENE 9 11 5 6 1010.1 - 0.2
21/09:30pm 21.7 20.3 8.7 43 6.9 ESE 6 7 3 4 1010.3 - 0.2
21/09:00pm 22.2 20.6 8.2 40 7.4 SE 6 7 3 4 1010.5 1010.5 0.2
21/08:30pm 22.8 21.0 8.0 38 7.8 ESE 7 9 4 5 1010.6 - 0.2
21/08:00pm 23.7 21.9 7.0 34 8.7 S 6 7 3 4 1010.4 - 0.2
21/07:30pm 24.4 22.9 7.0 32 9.1 SW 4 6 2 3 1010.5 - 0.2
21/07:00pm 25.1 23.0 6.7 30 9.6 S 7 9 4 5 1010.3 - 0.2
21/06:30pm 25.6 23.3 4.9 26 10.5 WNW 6 9 3 5 1010.2 - 0.2
21/06:00pm 26.1 24.3 5.5 26 10.6 W 4 9 2 5 1010.5 1010.5 0.2
21/05:30pm 25.5 22.5 4.1 25 10.7 WSW 9 15 5 8 1010.6 - 0.2
21/05:00pm 25.2 22.2 4.2 25 10.5 NW 9 13 5 7 1010.6 - 0.2
21/04:30pm 26.1 22.6 7.0 29 10.1 W 15 20 8 11 1010.8 - 0.2
21/04:00pm 26.8 23.8 6.1 26 10.8 W 11 17 6 9 1010.8 - 0.2
21/03:30pm 25.1 22.3 5.2 27 10.1 NNW 9 19 5 10 1011.0 - 0.2
21/03:00pm 25.5 22.7 5.3 27 10.3 WNW 9 17 5 9 1011.4 1011.4 0.2
21/02:30pm 23.8 21.7 6.6 33 8.9 WNW 7 15 4 8 1011.8 - 0.2
21/02:00pm 23.2 20.5 5.6 32 8.9 WNW 9 19 5 10 1012.4 - 0.2
21/01:30pm 23.5 20.3 3.3 26 9.8 W 9 17 5 9 1013.0 - 0.2
21/01:00pm 22.8 19.8 6.1 34 8.5 NW 11 20 6 11 1013.3 - 0.2
21/12:30pm 21.9 18.8 7.4 39 7.5 WNW 13 20 7 11 1013.5 - 0.2
21/12:00pm 22.2 19.9 8.9 42 7.1 W 11 22 6 12 1013.6 1013.5 0.2
21/11:30am 21.8 19.4 8.8 43 6.9 WNW 11 17 6 9 1013.9 - 0.2
21/11:00am 21.1 18.5 7.8 42 6.9 W 11 22 6 12 1014.0 - 0.2
21/10:30am 20.0 18.1 9.0 49 5.8 NW 9 17 5 9 1014.0 - 0.2
21/10:00am 20.3 17.3 9.4 49 5.8 W 15 20 8 11 1014.0 - 0.0
21/09:30am 19.4 17.2 9.4 52 5.3 WNW 11 19 6 10 1013.8 - 0.0
21/09:00am 18.2 16.8 9.5 57 4.6 NNW 7 15 4 8 1013.6 1013.5 6.4

Other Formats:

Comma delimited format used in spreadsheet applications
http://www.bom.gov.au/fwo/IDS60801/IDS60801.94675.axf

JavaScript Object Notation format (JSON) in row-major order
http://www.bom.gov.au/fwo/IDS60801/IDS60801.94675.json